Time;durP1;ratioP1;P1;durP2;ratioP2;P2;SDS_P1;SDS_P2;PMS_P1;PMS_P2;Temp;Humidity;BMP_temperature;BMP_pressure;BME280_temperature;BME280_humidity;BME280_pressure;Samples;Min_cycle;Max_cycle;Signal;HPM_P1;HPM_P2
2022/07/13 05:02:44;;;;;;;2.50;1.00;;;17.00;97.30;;;;;;5337659;23;20232;-70
2022/07/13 05:05:10;;;;;;;4.43;1.20;;;17.10;97.30;;;;;;4915082;29;20103;-71
2022/07/13 05:07:37;;;;;;;4.25;1.40;;;17.20;97.10;;;;;;4931851;29;20028;-72
2022/07/13 05:10:04;;;;;;;3.75;1.70;;;17.30;97.00;;;;;;4941561;29;20035;-72
2022/07/13 05:12:30;;;;;;;8.88;2.08;;;17.30;96.90;;;;;;4912173;29;20075;-72
2022/07/13 05:14:57;;;;;;;3.63;1.73;;;17.40;96.90;;;;;;4932435;29;20237;-72
2022/07/13 05:17:23;;;;;;;4.97;2.00;;;17.40;96.50;;;;;;4926603;29;20137;-73
2022/07/13 05:19:49;;;;;;;3.63;1.80;;;17.50;96.40;;;;;;4941510;29;20107;-70
2022/07/13 05:22:16;;;;;;;4.18;1.90;;;17.50;96.10;;;;;;4930059;29;20039;-72
2022/07/13 05:24:43;;;;;;;4.18;1.60;;;17.60;96.10;;;;;;4948077;29;20087;-72
2022/07/13 05:27:11;;;;;;;4.30;1.92;;;17.80;95.70;;;;;;4946376;29;20040;-72
2022/07/13 05:29:37;;;;;;;4.47;1.75;;;17.90;95.40;;;;;;4931190;29;20139;-71
2022/07/13 05:32:05;;;;;;;3.50;1.58;;;18.00;94.80;;;;;;4930387;29;20062;-72
2022/07/13 05:34:37;;;;;;;4.68;1.90;;;18.20;94.40;;;;;;4930803;29;20027;-71
2022/07/13 05:37:04;;;;;;;3.28;1.50;;;18.30;94.00;;;;;;4933804;29;20077;-71
2022/07/13 05:39:33;;;;;;;3.45;1.42;;;18.40;93.70;;;;;;4949939;29;20098;-71
2022/07/13 05:41:59;;;;;;;4.72;1.88;;;18.50;93.20;;;;;;4968524;29;20035;-74
2022/07/13 05:44:25;;;;;;;8.73;1.80;;;18.60;93.00;;;;;;4949532;29;20055;-74
2022/07/13 05:46:51;;;;;;;3.70;2.05;;;18.70;92.80;;;;;;4949012;29;20046;-73
2022/07/13 05:49:17;;;;;;;5.50;2.10;;;18.70;92.60;;;;;;4949056;29;20094;-73
2022/07/13 05:51:46;;;;;;;3.78;2.10;;;18.70;92.60;;;;;;4965583;29;20070;-76
2022/07/13 05:54:12;;;;;;;6.55;1.90;;;18.70;92.60;;;;;;4949179;29;20016;-72
2022/07/13 05:56:39;;;;;;;8.07;2.35;;;18.70;92.60;;;;;;4949828;29;20054;-72
2022/07/13 05:59:05;;;;;;;7.47;2.33;;;18.70;92.40;;;;;;4965619;29;20086;-73
2022/07/13 06:01:34;;;;;;;5.35;2.42;;;18.80;92.50;;;;;;4953470;28;20083;-79
2022/07/13 06:04:00;;;;;;;8.13;2.30;;;18.80;92.50;;;;;;4946979;29;20099;-75
2022/07/13 06:06:28;;;;;;;6.03;2.15;;;18.80;92.30;;;;;;4955850;29;20298;-73
2022/07/13 06:08:54;;;;;;;;;;;18.90;92.20;;;;;;4952991;28;20106;-73
2022/07/13 06:11:20;;;;;;;4.10;1.83;;;19.00;92.10;;;;;;4964347;29;19910;-73
2022/07/13 06:13:46;;;;;;;5.00;2.15;;;19.20;91.80;;;;;;4964187;29;20023;-72
2022/07/13 06:16:12;;;;;;;4.70;1.90;;;19.30;91.50;;;;;;4963855;28;20043;-71
2022/07/13 06:18:38;;;;;;;3.92;1.80;;;19.50;91.30;;;;;;4964470;29;20209;-72
2022/07/13 06:21:04;;;;;;;4.97;1.75;;;19.70;91.00;;;;;;4964608;29;20023;-72
2022/07/13 06:23:30;;;;;;;3.78;1.70;;;20.00;90.60;;;;;;4951075;29;20036;-73
2022/07/13 06:25:55;;;;;;;6.70;2.03;;;20.20;90.10;;;;;;4946744;29;20023;-74
2022/07/13 06:28:21;;;;;;;5.05;1.83;;;20.50;89.40;;;;;;4964250;28;20305;-74
2022/07/13 06:30:47;;;;;;;7.60;1.73;;;20.70;88.50;;;;;;4964794;28;20209;-82
2022/07/13 06:33:12;;;;;;;3.97;1.45;;;20.90;87.40;;;;;;4962788;29;20084;-76
2022/07/13 06:35:38;;;;;;;5.78;1.40;;;21.00;86.90;;;;;;4964778;29;20078;-78
2022/07/13 06:38:04;;;;;;;4.53;1.77;;;21.10;86.40;;;;;;4963269;29;20059;-75
2022/07/13 06:40:32;;;;;;;5.28;1.42;;;21.20;85.70;;;;;;4964120;29;20321;-77
2022/07/13 06:43:04;;;;;;;4.50;1.73;;;21.30;85.50;;;;;;4964695;29;20022;-78
2022/07/13 06:45:29;;;;;;;7.80;1.70;;;21.10;85.70;;;;;;4963438;28;20034;-77
2022/07/13 06:47:55;;;;;;;4.78;1.63;;;21.20;85.70;;;;;;4964528;29;20051;-75
2022/07/13 06:50:24;;;;;;;5.07;1.65;;;21.30;85.50;;;;;;4963865;29;20030;-75
2022/07/13 06:52:49;;;;;;;5.25;1.77;;;21.30;85.20;;;;;;4964052;29;20087;-79
2022/07/13 06:55:15;;;;;;;5.53;1.60;;;21.40;85.20;;;;;;4964005;29;20058;-75
2022/07/13 06:57:41;;;;;;;5.93;1.88;;;21.30;85.00;;;;;;4964518;29;20292;-75
2022/07/13 07:00:08;;;;;;;5.70;1.40;;;21.40;85.30;;;;;;4963290;28;20060;-77
2022/07/13 07:02:36;;;;;;;7.78;1.42;;;21.40;85.00;;;;;;4962258;28;20043;-75
2022/07/13 07:05:07;;;;;;;4.35;1.20;;;21.30;85.10;;;;;;4975286;28;20031;-76
2022/07/13 07:07:33;;;;;;;4.38;1.23;;;21.50;84.70;;;;;;4983117;28;20343;-76
2022/07/13 07:09:59;;;;;;;6.18;1.40;;;21.80;83.90;;;;;;4983216;28;20038;-74
2022/07/13 07:12:25;;;;;;;5.63;1.58;;;22.00;83.50;;;;;;4982775;28;20039;-74
2022/07/13 07:14:51;;;;;;;6.65;1.50;;;22.30;82.60;;;;;;4982032;28;20057;-74
2022/07/13 07:17:17;;;;;;;4.05;0.90;;;22.60;81.50;;;;;;4943383;29;20036;-73
2022/07/13 07:19:44;;;;;;;4.57;1.50;;;22.90;81.10;;;;;;4943234;29;20038;-76
2022/07/13 07:22:11;;;;;;;5.40;1.27;;;23.10;79.50;;;;;;4949220;29;20035;-76
2022/07/13 07:24:38;;;;;;;5.15;1.30;;;23.20;78.50;;;;;;4966634;29;20106;-74
2022/07/13 07:27:07;;;;;;;3.83;1.02;;;23.20;78.60;;;;;;4965425;29;20039;-75
2022/07/13 07:29:34;;;;;;;5.07;1.50;;;23.30;78.30;;;;;;4965569;29;20073;-76
2022/07/13 07:32:01;;;;;;;3.78;1.20;;;23.40;77.80;;;;;;4963876;29;20066;-75
2022/07/13 07:34:28;;;;;;;4.57;1.10;;;23.60;77.20;;;;;;4962849;29;20059;-76
2022/07/13 07:36:54;;;;;;;6.88;1.67;;;23.90;76.70;;;;;;4962488;29;20214;-74
2022/07/13 07:39:20;;;;;;;6.13;1.30;;;24.10;75.60;;;;;;4962039;29;20039;-74
2022/07/13 07:41:47;;;;;;;5.57;1.38;;;24.50;74.90;;;;;;4946660;29;20027;-74
2022/07/13 07:44:22;;;;;;;5.65;1.52;;;24.80;74.30;;;;;;4963098;29;20079;-76
2022/07/13 07:46:48;;;;;;;4.97;1.23;;;25.10;73.00;;;;;;4962201;29;20047;-74
2022/07/13 07:49:15;;;;;;;5.38;1.80;;;25.40;72.20;;;;;;4962541;29;20229;-75
2022/07/13 07:51:41;;;;;;;6.53;1.88;;;25.60;71.80;;;;;;4962208;29;20031;-76
2022/07/13 07:54:06;;;;;;;6.57;2.03;;;25.80;71.10;;;;;;4965536;28;20035;-76
2022/07/13 07:56:32;;;;;;;5.15;1.60;;;26.10;69.90;;;;;;4953940;29;20095;-74
2022/07/13 07:58:58;;;;;;;5.93;1.50;;;26.50;69.10;;;;;;4967083;28;20329;-75
2022/07/13 08:01:24;;;;;;;6.38;1.42;;;26.80;68.60;;;;;;4962880;28;20061;-77
2022/07/13 08:03:50;;;;;;;3.13;1.20;;;26.80;68.00;;;;;;4967434;28;20042;-75
2022/07/13 08:06:19;;;;;;;8.35;1.70;;;27.00;66.90;;;;;;4945537;29;20038;-77
2022/07/13 08:08:45;;;;;;;4.68;1.48;;;27.40;67.00;;;;;;4962902;29;20023;-75
2022/07/13 08:11:16;;;;;;;4.25;1.20;;;27.70;65.10;;;;;;4976254;28;20305;-77
2022/07/13 08:13:42;;;;;;;4.78;1.00;;;27.70;65.10;;;;;;4963002;29;20094;-75
2022/07/13 08:16:08;;;;;;;4.88;1.45;;;27.70;65.00;;;;;;4962511;28;20121;-77
2022/07/13 08:18:34;;;;;;;4.60;1.30;;;28.10;65.00;;;;;;4962555;29;20031;-75
2022/07/13 08:21:00;;;;;;;6.05;1.20;;;28.40;64.30;;;;;;4962764;29;20031;-77
2022/07/13 08:26:28;;;;;;;3.45;1.33;;;28.60;63.70;;;;;;4922032;29;20079;-76
2022/07/13 08:28:56;;;;;;;8.55;1.98;;;28.80;63.00;;;;;;4949491;28;20074;-74
2022/07/13 08:31:22;;;;;;;9.05;1.33;;;28.80;62.70;;;;;;4966069;28;20047;-75
2022/07/13 08:39:19;;;;;;;3.22;0.90;;;29.00;62.50;;;;;;4968634;29;20031;-76
2022/07/13 08:41:46;;;;;;;4.18;0.98;;;29.00;62.20;;;;;;4955372;29;20054;-76
2022/07/13 08:44:12;;;;;;;4.93;1.00;;;29.20;62.00;;;;;;4950017;29;20044;-77
2022/07/13 08:46:39;;;;;;;7.22;0.90;;;29.40;61.30;;;;;;4948938;29;20055;-76
2022/07/13 08:49:06;;;;;;;3.17;0.85;;;29.40;60.70;;;;;;4949887;29;20106;-76
2022/07/13 08:51:32;;;;;;;4.50;1.00;;;29.60;61.30;;;;;;4949464;29;20366;-76
2022/07/13 08:54:00;;;;;;;4.30;1.02;;;29.60;60.50;;;;;;4932861;29;20159;-76
2022/07/13 08:56:25;;;;;;;3.92;0.90;;;29.50;60.50;;;;;;4949432;29;20030;-75
2022/07/13 08:58:54;;;;;;;3.40;0.90;;;29.20;60.60;;;;;;4945073;29;20036;-76
2022/07/13 09:01:21;;;;;;;7.18;1.58;;;29.30;60.70;;;;;;4952357;29;20039;-75
2022/07/13 09:07:27;;;;;;;7.63;1.50;;;29.40;59.90;;;;;;4948903;29;20351;-75
2022/07/13 09:09:56;;;;;;;5.40;1.35;;;29.60;60.60;;;;;;4940895;29;20048;-76
2022/07/13 09:12:26;;;;;;;3.20;0.50;;;29.50;60.20;;;;;;4912924;29;20039;-76
2022/07/13 09:14:57;;;;;;;1.15;0.40;;;29.40;57.80;;;;;;4930356;29;20067;-75
2022/07/13 09:17:33;;;;;;;1.88;0.40;;;29.40;56.90;;;;;;4929184;29;20051;-76
2022/07/13 09:20:15;;;;;;;1.85;0.70;;;29.00;56.50;;;;;;4913945;29;20047;-75
2022/07/13 09:22:58;;;;;;;2.10;0.88;;;28.90;57.20;;;;;;4913555;29;20274;-75
2022/07/13 09:25:44;;;;;;;2.13;0.52;;;28.70;58.00;;;;;;4930162;29;20079;-74
2022/07/13 09:28:13;;;;;;;1.67;0.60;;;28.70;58.30;;;;;;4930273;29;20043;-74
2022/07/13 09:30:42;;;;;;;2.97;0.50;;;28.80;58.10;;;;;;4946183;29;20083;-74
2022/07/13 09:33:08;;;;;;;1.83;0.40;;;28.90;57.20;;;;;;4949424;29;20082;-76
2022/07/13 09:35:49;;;;;;;1.67;0.30;;;28.90;56.30;;;;;;4931824;29;20044;-76
2022/07/13 09:38:34;;;;;;;1.23;0.40;;;28.80;56.60;;;;;;4932764;29;20071;-75
2022/07/13 09:41:21;;;;;;;3.45;0.40;;;28.80;56.30;;;;;;4949542;29;20062;-76
2022/07/13 09:47:05;;;;;;;3.15;0.35;;;28.90;56.70;;;;;;4945479;29;20115;-76
2022/07/13 09:49:42;;;;;;;4.35;0.50;;;28.70;55.70;;;;;;4945895;29;20040;-78
2022/07/13 09:52:10;;;;;;;3.15;0.65;;;28.70;57.20;;;;;;4945288;29;20217;-77
2022/07/13 09:54:41;;;;;;;0.90;0.25;;;28.70;57.60;;;;;;4928676;29;20110;-77
2022/07/13 09:57:13;;;;;;;2.45;0.70;;;28.80;55.30;;;;;;4946400;29;20168;-76
2022/07/13 09:59:41;;;;;;;1.85;0.40;;;28.80;54.10;;;;;;4945739;29;20321;-75
2022/07/13 10:02:07;;;;;;;;;;;28.90;55.40;;;;;;4960889;29;20051;-77
2022/07/13 10:04:35;;;;;;;1.60;0.57;;;29.00;55.70;;;;;;4945304;29;20083;-76
2022/07/13 10:07:01;;;;;;;2.33;0.47;;;29.00;54.10;;;;;;4945757;29;20139;-74
2022/07/13 10:09:30;;;;;;;1.10;0.35;;;28.90;53.50;;;;;;4948085;29;20061;-75
2022/07/13 10:12:01;;;;;;;3.22;0.30;;;28.90;53.60;;;;;;4963865;29;20078;-75
2022/07/13 10:14:27;;;;;;;2.13;0.38;;;28.90;52.70;;;;;;4946125;29;20023;-76
2022/07/13 10:17:07;;;;;;;1.67;0.40;;;28.90;54.30;;;;;;4946191;29;20314;-76
2022/07/13 10:19:48;;;;;;;1.08;0.50;;;29.00;54.30;;;;;;4947178;29;20027;-74
2022/07/13 10:22:29;;;;;;;1.48;0.40;;;29.10;54.00;;;;;;4947832;29;20031;-74
2022/07/13 10:24:59;;;;;;;1.73;0.40;;;29.10;54.10;;;;;;4965055;29;20053;-73
2022/07/13 10:27:31;;;;;;;2.75;0.70;;;29.30;53.90;;;;;;4963164;29;20221;-75
2022/07/13 10:30:01;;;;;;;2.33;0.40;;;29.30;53.50;;;;;;4964644;29;20273;-79
2022/07/13 10:32:46;;;;;;;3.63;0.50;;;29.40;53.20;;;;;;4931397;29;20221;-76
2022/07/13 10:35:16;;;;;;;1.27;0.40;;;29.60;51.80;;;;;;4965150;29;20063;-75
2022/07/13 10:38:00;;;;;;;3.13;0.50;;;29.60;53.40;;;;;;4964991;29;20154;-77
2022/07/13 10:40:30;;;;;;;2.28;0.50;;;29.70;53.60;;;;;;4964730;29;20301;-77
2022/07/13 10:42:57;;;;;;;3.83;0.60;;;29.70;52.50;;;;;;4964843;29;20190;-73
2022/07/13 10:45:34;;;;;;;5.80;0.82;;;29.70;50.90;;;;;;4962180;29;20045;-74
2022/07/13 10:48:02;;;;;;;2.83;0.50;;;29.90;52.70;;;;;;4946991;29;20312;-73
2022/07/13 10:50:34;;;;;;;2.83;0.30;;;30.20;49.90;;;;;;4964087;29;20082;-73
2022/07/13 10:53:01;;;;;;;2.35;0.40;;;30.30;46.80;;;;;;4964443;29;20033;-72
2022/07/13 10:55:31;;;;;;;1.42;0.20;;;30.50;49.30;;;;;;4930922;29;20335;-74
2022/07/13 10:57:57;;;;;;;2.85;0.47;;;30.80;49.00;;;;;;4928637;29;20091;-75
2022/07/13 11:00:42;;;;;;;1.95;0.55;;;31.20;49.80;;;;;;4944846;29;20047;-74
2022/07/13 11:03:43;;;;;;;4.63;0.75;;;31.50;50.00;;;;;;4953021;29;20602;-73
2022/07/13 11:06:17;;;;;;;2.25;0.45;;;31.80;49.60;;;;;;4944953;29;20094;-74
2022/07/13 11:08:43;;;;;;;3.20;0.55;;;32.00;48.50;;;;;;4944556;29;20079;-79
2022/07/13 11:11:18;;;;;;;8.05;1.00;;;32.00;47.60;;;;;;4961214;29;20023;-75
2022/07/13 11:13:53;;;;;;;1.83;0.60;;;31.90;48.10;;;;;;4963065;29;20046;-80
2022/07/13 11:16:44;;;;;;;1.08;0.30;;;32.00;47.60;;;;;;4963109;29;20039;-73
2022/07/13 11:19:10;;;;;;;1.50;0.30;;;32.00;47.00;;;;;;4963895;29;20027;-76
2022/07/13 11:22:08;;;;;;;2.08;0.30;;;32.30;45.80;;;;;;4963026;29;20023;-75
2022/07/13 11:27:37;;;;;;;2.88;0.50;;;33.40;45.50;;;;;;4959642;28;20052;-72
2022/07/13 11:30:04;;;;;;;6.65;1.15;;;34.00;44.80;;;;;;4935487;29;20027;-76
2022/07/13 11:32:30;;;;;;;2.78;0.40;;;34.40;45.10;;;;;;4952510;29;20035;-75
2022/07/13 11:34:56;;;;;;;10.38;0.93;;;34.30;43.90;;;;;;4963768;29;20038;-74
2022/07/13 11:37:25;;;;;;;21.20;1.35;;;34.50;44.10;;;;;;4948787;29;20059;-73
2022/07/13 11:39:51;;;;;;;2.10;0.50;;;34.80;44.00;;;;;;4944090;29;20035;-75
2022/07/13 11:42:22;;;;;;;3.03;0.90;;;34.80;43.20;;;;;;4944193;29;20031;-76
2022/07/13 11:44:50;;;;;;;3.92;0.50;;;35.20;43.00;;;;;;4932300;29;20031;-73
2022/07/13 11:47:17;;;;;;;1.50;0.40;;;35.60;42.50;;;;;;4962693;29;20352;-74
2022/07/13 11:49:43;;;;;;;5.18;0.47;;;36.40;42.10;;;;;;4962844;29;20085;-73
2022/07/13 11:52:29;;;;;;;2.90;0.40;;;37.20;41.70;;;;;;4962887;29;20068;-73
2022/07/13 11:55:05;;;;;;;1.55;0.50;;;37.70;41.10;;;;;;4962716;29;20047;-74
2022/07/13 11:57:33;;;;;;;1.00;0.30;;;38.30;40.50;;;;;;4933695;29;20028;-74
2022/07/13 12:00:09;;;;;;;0.73;0.30;;;38.20;39.30;;;;;;4938149;29;20185;-73
2022/07/13 12:02:37;;;;;;;2.05;0.20;;;38.90;39.70;;;;;;4949847;29;20182;-74
2022/07/13 12:05:03;;;;;;;1.05;0.20;;;39.40;38.50;;;;;;4943675;29;20098;-74
2022/07/13 12:07:30;;;;;;;1.08;0.15;;;39.20;38.60;;;;;;4942921;29;20044;-74
2022/07/13 12:10:06;;;;;;;0.75;0.17;;;39.00;38.70;;;;;;4936071;29;20322;-73
2022/07/13 12:12:33;;;;;;;2.92;0.28;;;39.10;39.00;;;;;;4924351;29;20039;-73
2022/07/13 12:14:59;;;;;;;1.00;0.30;;;40.10;38.40;;;;;;4924975;29;20020;-73
2022/07/13 12:17:27;;;;;;;1.33;0.37;;;40.10;38.20;;;;;;4907279;29;20092;-73
2022/07/13 12:20:14;;;;;;;1.27;0.30;;;41.20;37.20;;;;;;4927781;29;20078;-74
2022/07/13 12:22:40;;;;;;;0.68;0.20;;;41.20;36.50;;;;;;4943336;29;20031;-73
2022/07/13 12:25:07;;;;;;;1.42;0.20;;;42.70;36.70;;;;;;4943824;29;20034;-73
2022/07/13 12:27:33;;;;;;;0.70;0.20;;;43.60;36.20;;;;;;4943050;29;20253;-76
2022/07/13 12:30:10;;;;;;;1.02;0.30;;;44.20;36.40;;;;;;4943525;29;20114;-74
2022/07/13 12:32:59;;;;;;;3.08;0.38;;;44.80;35.30;;;;;;4961951;29;20058;-74
2022/07/13 12:35:30;;;;;;;1.15;0.40;;;45.70;35.30;;;;;;4961468;29;20039;-77
2022/07/13 12:38:00;;;;;;;2.47;0.20;;;46.00;35.40;;;;;;4963093;29;20031;-75
2022/07/13 12:40:36;;;;;;;3.67;0.30;;;46.20;34.90;;;;;;4962878;28;20043;-75
2022/07/13 12:43:02;;;;;;;1.52;0.30;;;45.40;35.30;;;;;;4961360;29;20031;-76
2022/07/13 12:45:31;;;;;;;0.85;0.17;;;45.30;35.10;;;;;;4962264;28;20094;-74
2022/07/13 12:47:57;;;;;;;0.40;0.20;;;44.60;34.20;;;;;;4962620;28;20097;-74
2022/07/13 12:50:30;;;;;;;1.48;0.35;;;45.30;34.30;;;;;;4962466;29;20103;-77
2022/07/13 12:53:00;;;;;;;1.23;0.40;;;45.50;34.60;;;;;;4960281;28;20106;-76
2022/07/13 12:55:26;;;;;;;1.67;0.23;;;45.30;35.20;;;;;;4943343;29;20039;-77
2022/07/13 12:57:52;;;;;;;0.98;0.20;;;44.20;34.70;;;;;;4942901;29;20039;-76
2022/07/13 13:00:25;;;;;;;1.25;0.30;;;43.60;35.70;;;;;;4949881;28;20027;-73
2022/07/13 13:02:51;;;;;;;1.35;0.20;;;43.00;35.50;;;;;;4962079;29;20063;-74
2022/07/13 13:05:17;;;;;;;0.98;0.25;;;42.60;35.30;;;;;;4962775;29;20039;-73
2022/07/13 13:07:43;;;;;;;0.90;0.30;;;43.10;35.50;;;;;;4961791;29;20309;-73
2022/07/13 13:10:10;;;;;;;2.17;0.40;;;44.10;35.60;;;;;;4962510;29;20082;-73
2022/07/13 13:12:37;;;;;;;1.67;0.20;;;43.80;35.20;;;;;;4962034;29;20035;-73
2022/07/13 13:15:06;;;;;;;2.45;0.30;;;44.50;35.30;;;;;;4961784;28;20229;-73
2022/07/13 13:17:32;;;;;;;1.55;0.25;;;44.30;35.00;;;;;;4944681;29;20035;-73
2022/07/13 13:19:58;;;;;;;1.10;0.22;;;43.70;35.30;;;;;;4964240;28;20034;-73
2022/07/13 13:22:24;;;;;;;0.63;0.20;;;42.40;36.00;;;;;;4965687;29;20031;-75
2022/07/13 13:24:49;;;;;;;2.05;0.40;;;42.00;36.60;;;;;;4948373;29;20141;-74
2022/07/13 13:27:15;;;;;;;3.40;0.43;;;41.20;37.00;;;;;;4966037;29;20079;-73
2022/07/13 13:32:26;;;;;;;1.02;0.30;;;40.30;37.90;;;;;;4946102;29;20043;-73
2022/07/13 13:34:52;;;;;;;3.03;0.40;;;39.70;37.40;;;;;;4945938;29;20040;-71
2022/07/13 13:37:18;;;;;;;3.17;0.38;;;39.30;38.00;;;;;;4962353;29;20038;-73
2022/07/13 13:39:43;;;;;;;4.00;0.35;;;39.20;38.00;;;;;;4964224;29;20340;-72
2022/07/13 13:42:09;;;;;;;1.38;0.10;;;38.70;38.10;;;;;;4965737;28;20046;-72
2022/07/13 13:44:35;;;;;;;1.50;0.20;;;38.70;37.70;;;;;;4964866;28;20076;-71
2022/07/13 13:47:01;;;;;;;0.70;0.20;;;38.80;37.40;;;;;;4964887;28;20114;-72
2022/07/13 13:49:26;;;;;;;0.75;0.25;;;38.70;38.00;;;;;;4964075;28;20057;-72
2022/07/13 13:51:52;;;;;;;0.93;0.20;;;38.70;38.30;;;;;;4964844;28;20102;-72
2022/07/13 13:54:18;;;;;;;0.85;0.25;;;38.50;37.90;;;;;;4965475;28;20034;-73
2022/07/13 13:56:44;;;;;;;2.20;0.30;;;39.20;37.70;;;;;;4965209;29;20062;-75
2022/07/13 13:59:09;;;;;;;1.17;0.13;;;38.80;37.10;;;;;;4965807;29;20322;-73
2022/07/13 14:01:36;;;;;;;5.82;0.30;;;38.00;38.10;;;;;;4962878;28;20046;-72
2022/07/13 14:04:02;;;;;;;2.20;0.60;;;37.70;38.30;;;;;;4966417;29;20070;-74
2022/07/13 14:06:28;;;;;;;1.48;0.30;;;36.90;38.00;;;;;;4964579;28;20027;-75
2022/07/13 14:08:55;;;;;;;0.70;0.20;;;36.60;38.70;;;;;;4963714;29;20031;-73
2022/07/13 14:11:21;;;;;;;0.65;0.28;;;36.20;39.10;;;;;;4947354;29;20301;-72
2022/07/13 14:13:47;;;;;;;1.33;0.30;;;35.70;39.40;;;;;;4946600;29;20081;-76
2022/07/13 14:16:13;;;;;;;2.55;0.40;;;35.50;39.50;;;;;;4945273;29;20066;-75
2022/07/13 14:18:39;;;;;;;3.22;0.30;;;35.20;39.90;;;;;;4946847;29;20054;-75
2022/07/13 14:21:05;;;;;;;0.82;0.20;;;34.80;39.70;;;;;;4949808;29;20118;-75
2022/07/13 14:23:31;;;;;;;0.95;0.30;;;34.50;40.00;;;;;;4947306;29;20088;-79
2022/07/13 14:26:12;;;;;;;0.70;0.28;;;34.50;40.40;;;;;;4965308;29;20032;-77
2022/07/13 14:28:39;;;;;;;1.35;0.30;;;34.40;40.60;;;;;;4965484;29;20027;-77
2022/07/13 14:31:05;;;;;;;3.45;0.20;;;34.40;40.80;;;;;;4949946;28;20043;-77
2022/07/13 14:33:30;;;;;;;1.17;0.30;;;34.50;40.70;;;;;;4947263;29;20027;-77
2022/07/13 14:35:56;;;;;;;0.38;0.15;;;34.60;40.60;;;;;;4951496;29;20097;-77
2022/07/13 14:38:22;;;;;;;0.30;0.10;;;34.80;41.30;;;;;;4965661;29;20055;-77
2022/07/13 14:40:48;;;;;;;3.90;0.30;;;34.80;40.10;;;;;;4965359;28;20037;-76
2022/07/13 14:43:13;;;;;;;0.90;0.20;;;34.50;40.20;;;;;;4965963;28;20236;-78
2022/07/13 14:45:39;;;;;;;0.60;0.20;;;34.50;40.20;;;;;;4964672;28;20032;-76
2022/07/13 14:48:05;;;;;;;0.82;0.22;;;34.20;40.50;;;;;;4965607;28;20413;-79
2022/07/13 14:50:34;;;;;;;0.93;0.20;;;34.40;41.00;;;;;;4965432;28;20026;-76
2022/07/13 14:53:01;;;;;;;1.30;0.10;;;34.40;40.90;;;;;;4965293;29;20038;-77
2022/07/13 14:55:27;;;;;;;0.95;0.10;;;34.50;40.10;;;;;;4965521;28;20259;-78
2022/07/13 14:57:53;;;;;;;0.70;0.30;;;34.50;40.00;;;;;;4979771;28;20313;-77
2022/07/13 15:00:23;;;;;;;1.38;0.40;;;34.60;40.50;;;;;;4961832;28;20078;-78
2022/07/13 15:02:55;;;;;;;1.48;0.30;;;34.80;41.00;;;;;;4959965;29;20333;-78
2022/07/13 15:05:22;;;;;;;0.75;0.20;;;34.70;41.60;;;;;;4948280;29;20045;-78
2022/07/13 15:07:48;;;;;;;0.90;0.20;;;34.50;40.70;;;;;;4964716;29;20031;-78
2022/07/13 15:10:14;;;;;;;1.35;0.20;;;34.40;41.40;;;;;;4964746;28;20331;-78
2022/07/13 15:12:40;;;;;;;1.33;0.30;;;34.10;40.50;;;;;;4964488;29;20038;-78
2022/07/13 15:15:07;;;;;;;1.20;0.30;;;33.90;41.00;;;;;;4947275;29;20037;-78
2022/07/13 15:17:33;;;;;;;1.50;0.28;;;33.80;40.70;;;;;;4964072;29;20043;-77
2022/07/13 15:19:59;;;;;;;1.00;0.22;;;33.70;41.90;;;;;;4964752;29;20027;-78
2022/07/13 15:22:28;;;;;;;0.95;0.30;;;33.60;42.60;;;;;;4964646;29;20039;-77
2022/07/13 15:24:54;;;;;;;1.75;0.45;;;33.40;40.80;;;;;;4964171;29;20379;-77
2022/07/13 15:27:20;;;;;;;0.70;0.30;;;33.30;40.70;;;;;;4947601;29;20043;-78
2022/07/13 15:29:46;;;;;;;2.03;0.30;;;33.20;41.50;;;;;;4960324;29;20054;-77
2022/07/13 15:32:12;;;;;;;1.67;0.30;;;33.20;42.40;;;;;;4945151;29;20237;-78
2022/07/13 15:34:37;;;;;;;2.10;0.40;;;33.40;43.40;;;;;;4928711;29;20087;-77
2022/07/13 15:37:05;;;;;;;1.35;0.40;;;33.70;44.20;;;;;;4960627;29;20082;-77
2022/07/13 15:39:50;;;;;;;;;;;;;;;;;;;;;
2022/07/13 15:42:16;;;;;;;1.52;0.50;;;34.40;43.70;;;;;;4965693;28;20057;-77
2022/07/13 15:44:42;;;;;;;2.00;0.35;;;34.10;43.10;;;;;;4979359;28;20034;-78
2022/07/13 15:47:08;;;;;;;1.75;0.50;;;33.30;42.90;;;;;;4963759;28;20098;-77
2022/07/13 15:49:33;;;;;;;2.20;0.43;;;33.00;43.60;;;;;;4964639;28;20023;-77
2022/07/13 15:51:59;;;;;;;4.80;0.68;;;32.70;43.80;;;;;;4962829;29;20031;-77
2022/07/13 15:54:25;;;;;;;1.25;0.40;;;32.50;43.90;;;;;;4964107;28;20035;-76
2022/07/13 15:57:00;;;;;;;3.22;0.57;;;32.30;44.20;;;;;;4963892;28;20031;-78
2022/07/13 15:59:26;;;;;;;3.67;0.30;;;32.00;44.80;;;;;;4964496;29;20130;-77
2022/07/13 16:01:52;;;;;;;2.38;0.60;;;31.70;45.50;;;;;;4956109;29;20243;-77
2022/07/13 16:04:17;;;;;;;3.55;0.50;;;31.40;45.80;;;;;;4946554;29;20027;-77
2022/07/13 16:06:43;;;;;;;2.50;0.77;;;31.10;45.70;;;;;;4946850;29;20027;-76
2022/07/13 16:09:09;;;;;;;2.90;0.45;;;31.00;46.30;;;;;;4964201;29;20115;-76
2022/07/13 16:11:35;;;;;;;2.78;0.65;;;30.80;46.60;;;;;;4963780;28;20031;-78
2022/07/13 16:14:01;;;;;;;2.17;0.50;;;30.70;46.50;;;;;;4962391;29;20035;-77
2022/07/13 16:16:28;;;;;;;3.00;0.50;;;30.50;46.40;;;;;;4962451;29;20053;-78
2022/07/13 16:18:54;;;;;;;3.55;0.60;;;30.40;46.50;;;;;;4963474;29;20236;-78
2022/07/13 16:21:19;;;;;;;2.47;0.38;;;30.30;46.50;;;;;;4964237;29;20070;-78
2022/07/13 16:23:45;;;;;;;3.15;0.50;;;30.10;46.60;;;;;;4962141;29;20027;-78
2022/07/13 16:26:11;;;;;;;2.80;0.40;;;30.00;46.80;;;;;;4946783;29;20173;-77
2022/07/13 16:28:38;;;;;;;1.20;0.32;;;30.00;47.00;;;;;;4963460;29;20039;-78
2022/07/13 16:31:06;;;;;;;1.63;0.50;;;29.90;47.50;;;;;;4963222;29;20236;-77
2022/07/13 16:33:34;;;;;;;1.85;0.40;;;29.90;47.20;;;;;;4964165;28;20352;-77
2022/07/13 16:35:59;;;;;;;7.75;1.00;;;29.90;47.50;;;;;;4963262;29;20039;-77
2022/07/13 16:38:25;;;;;;;2.13;0.57;;;29.90;47.40;;;;;;4963821;28;20081;-77
2022/07/13 16:40:51;;;;;;;3.65;0.68;;;29.90;47.80;;;;;;4962199;29;20046;-78
2022/07/13 16:43:17;;;;;;;4.07;0.70;;;30.00;47.40;;;;;;4962769;29;20046;-77
2022/07/13 16:45:42;;;;;;;2.22;0.43;;;30.00;47.10;;;;;;4962763;28;20047;-77
2022/07/13 16:48:08;;;;;;;3.33;0.50;;;30.10;47.00;;;;;;4963711;28;20170;-77
2022/07/13 16:50:34;;;;;;;2.78;0.80;;;30.10;46.70;;;;;;4963870;29;20313;-77
2022/07/13 16:53:00;;;;;;;2.58;0.80;;;30.20;47.30;;;;;;4964069;28;20305;-77
2022/07/13 16:55:26;;;;;;;1.38;0.60;;;30.30;47.30;;;;;;4967498;28;20062;-77
2022/07/13 16:57:51;;;;;;;2.63;0.70;;;30.50;47.50;;;;;;4966636;28;20109;-77
2022/07/13 17:00:17;;;;;;;2.33;0.90;;;30.60;47.20;;;;;;4967030;28;20061;-76
2022/07/13 17:02:44;;;;;;;5.15;0.90;;;30.80;46.90;;;;;;4977907;28;20117;-77
2022/07/13 17:05:10;;;;;;;2.45;0.43;;;30.80;46.90;;;;;;4972848;28;20042;-75
2022/07/13 17:07:37;;;;;;;2.55;0.70;;;30.80;46.60;;;;;;4967138;29;20209;-76
2022/07/13 17:10:05;;;;;;;2.13;0.90;;;30.60;47.00;;;;;;4967026;29;20037;-76
2022/07/13 17:12:33;;;;;;;1.38;0.50;;;30.70;47.00;;;;;;4966689;28;20032;-76
2022/07/13 17:14:58;;;;;;;4.38;0.75;;;30.70;47.60;;;;;;4949709;29;20377;-75
2022/07/13 17:17:24;;;;;;;6.72;1.10;;;30.70;46.90;;;;;;4966594;28;20039;-75
2022/07/13 17:19:50;;;;;;;3.03;0.98;;;30.60;47.70;;;;;;4967629;29;20039;-78
2022/07/13 17:22:15;;;;;;;4.20;1.00;;;30.50;48.40;;;;;;4951490;29;20034;-78
2022/07/13 17:24:41;;;;;;;4.97;1.33;;;30.50;49.00;;;;;;4967400;29;20035;-78
2022/07/13 17:27:07;;;;;;;3.45;1.17;;;30.30;49.30;;;;;;4950944;29;20364;-78
2022/07/13 17:29:33;;;;;;;2.42;1.00;;;30.20;49.70;;;;;;4950974;29;20028;-78
2022/07/13 17:31:59;;;;;;;2.47;0.90;;;30.10;49.90;;;;;;4968161;29;20086;-77
2022/07/13 17:34:26;;;;;;;4.53;1.10;;;30.00;50.10;;;;;;4939207;29;20038;-76
2022/07/13 17:36:52;;;;;;;2.70;1.10;;;29.90;50.70;;;;;;4967046;29;20030;-76
2022/07/13 17:39:18;;;;;;;3.72;1.20;;;29.80;51.10;;;;;;4949114;29;20031;-77
2022/07/13 17:41:43;;;;;;;3.05;1.00;;;29.80;51.10;;;;;;4965926;29;20132;-76
2022/07/13 17:44:09;;;;;;;2.53;1.05;;;29.70;51.00;;;;;;4949729;29;20272;-76
2022/07/13 17:46:35;;;;;;;3.08;1.20;;;29.70;51.10;;;;;;4966242;28;20098;-75
2022/07/13 17:49:03;;;;;;;2.83;1.35;;;29.90;51.10;;;;;;4965847;29;20043;-75
2022/07/13 17:51:28;;;;;;;3.03;1.10;;;31.40;50.00;;;;;;4967596;28;20031;-79
2022/07/13 17:53:54;;;;;;;3.50;1.30;;;32.60;48.20;;;;;;4972811;28;20034;-79
2022/07/13 17:56:20;;;;;;;1.90;0.73;;;33.30;47.50;;;;;;4979708;28;20030;-76
2022/07/13 17:58:46;;;;;;;1.75;0.80;;;34.00;46.60;;;;;;4984071;28;20038;-78
2022/07/13 18:01:13;;;;;;;2.65;0.85;;;34.40;46.10;;;;;;4967050;28;20038;-77
2022/07/13 18:03:40;;;;;;;2.28;0.88;;;34.20;46.10;;;;;;4951343;28;20313;-76
2022/07/13 18:06:06;;;;;;;2.63;1.00;;;34.00;46.30;;;;;;4945003;29;20031;-76
2022/07/13 18:08:32;;;;;;;2.28;0.90;;;33.70;46.70;;;;;;4964581;28;20053;-76
2022/07/13 18:10:57;;;;;;;3.72;1.15;;;32.80;47.30;;;;;;4966610;28;20085;-76
2022/07/13 18:13:24;;;;;;;2.47;0.80;;;32.00;48.50;;;;;;4984243;28;20329;-76
2022/07/13 18:15:50;;;;;;;3.25;1.13;;;31.40;49.20;;;;;;4965761;28;20090;-76